KORD

Chicago O'hare International Airport

Chicago, Illinois, USA
KORD 191509Z 1915/2018 04018G29KT 2SM -SN BLSN OVC012 TEMPO 1915/1916 1SM -SN BLSN FM191800 02018G29KT 6SM BLSN VCSH OVC015 FM200000 01017G27KT 6SM -SN BLSN SCT014 BKN018 FM200400 36014G21KT 5SM -SHSN SCT015 BKN025 TEMPO 2004/2008 3/4SM -SHSN OVC009 FM200800 34014G20KT P6SM VCSH SCT020 BKN035 FM201500 34011KT P6SM BKN120
Issued Valid From Valid To
Jan-19 @ 15:09 UTC
(2 hours ago)
Jan-19 @ 15:00 UTC
(2 hours ago)
Jan-20 @ 18:00 UTC
(-1 days ago)
Jan-19 @ 15:00 to Jan-19 @ 18:00
KORD 191509Z 1915/2018 04018G29KT 2SM -SN BLSN OVC012
Wind Visibility Clouds Conditions
40° at 18 knots
 Gusting to 29 knots
2 miles
  • Overcast at 1,200' AGL
  • Light Snow
  • Blowing
  • Snow
Expired Click to View Jan-19 @ 15:00 to Jan-19 @ 16:00
TEMPO 1915/1916 1SM -SN BLSN
Visibility Conditions
1 miles
  • Light Snow
  • Blowing
  • Snow
From Jan-19 @ 18:00 to Jan-20 @ 00:00
FM191800 02018G29KT 6SM BLSN VCSH OVC015
Wind Visibility Clouds Conditions
20° at 18 knots
 Gusting to 29 knots
6 miles
  • Overcast at 1,500' AGL
  • Blowing
  • Snow
From Jan-20 @ 00:00 to Jan-20 @ 04:00
FM200000 01017G27KT 6SM -SN BLSN SCT014 BKN018
Wind Visibility Clouds Conditions
10° at 17 knots
 Gusting to 27 knots
6 miles
  • Scattered at 1,400' AGL
  • Broken at 1,800' AGL
  • Light Snow
  • Blowing
  • Snow
From Jan-20 @ 04:00 to Jan-20 @ 08:00
FM200400 36014G21KT 5SM -SHSN SCT015 BKN025
Wind Visibility Clouds Conditions
360° at 14 knots
 Gusting to 21 knots
5 miles
  • Scattered at 1,500' AGL
  • Broken at 2,500' AGL
  • Light Snow
Temporary Jan-20 @ 04:00 to Jan-20 @ 08:00
TEMPO 2004/2008 3/4SM -SHSN OVC009
Visibility Clouds Conditions
3/4 miles
  • Overcast at 900' AGL
  • Light Snow
From Jan-20 @ 08:00 to Jan-20 @ 15:00
FM200800 34014G20KT P6SM VCSH SCT020 BKN035
Wind Visibility Clouds
340° at 14 knots
 Gusting to 20 knots
Greater than 6 miles
  • Scattered at 2,000' AGL
  • Broken at 3,500' AGL
From Jan-20 @ 15:00 to Jan-20 @ 18:00
FM201500 34011KT P6SM BKN120
Wind Visibility Clouds
340° at 11 knots Greater than 6 miles
  • Broken at 12,000' AGL
KORD 191509Z 1915/2018 04018G29KT 2SM -SN BLSN OVC012 TEMPO 1915/1916 1SM -SN BLSN FM191800 02018G29KT 6SM BLSN VCSH OVC015 FM200000 01017G27KT 6SM -SN BLSN SCT014 BKN018 FM200400 36014G21KT 5SM -SHSN SCT015 BKN025 TEMPO 2004/2008 3/4SM -SHSN OVC009 FM200800 34014G20KT P6SM VCSH SCT020 BKN035 FM201500 34011KT P6SM BKN120
Issued Jan-19 @ 15:09 UTC
(2 hours ago)
Valid From Jan-19 @ 15:00 UTC
(2 hours ago)
Valid To Jan-20 @ 18:00 UTC
(-1 days ago)
Jan-19 @ 15:00 - Jan-19 @ 18:00
Wind Visibility
40° at 18 knots
 Gusting to 29 knots
2 miles
Clouds
  • Overcast at 1,200' AGL
Conditions
  • Light Snow
  • Blowing
  • Snow
Jan-19 @ 15:00 - Jan-19 @ 16:00
Conditions
  • Light Snow
  • Blowing
  • Snow
From Jan-19 @ 18:00 - Jan-20 @ 00:00
Wind Visibility
20° at 18 knots
 Gusting to 29 knots
6 miles
Clouds
  • Overcast at 1,500' AGL
Conditions
  • Blowing
  • Snow
From Jan-20 @ 00:00 - Jan-20 @ 04:00
Wind Visibility
10° at 17 knots
 Gusting to 27 knots
6 miles
Clouds
  • Scattered at 1,400' AGL
  • Broken at 1,800' AGL
Conditions
  • Light Snow
  • Blowing
  • Snow
From Jan-20 @ 04:00 - Jan-20 @ 08:00
Wind Visibility
360° at 14 knots
 Gusting to 21 knots
5 miles
Clouds
  • Scattered at 1,500' AGL
  • Broken at 2,500' AGL
Conditions
  • Light Snow
Temporary Jan-20 @ 04:00 - Jan-20 @ 08:00
Clouds
  • Overcast at 900' AGL
Conditions
  • Light Snow
From Jan-20 @ 08:00 - Jan-20 @ 15:00
Wind Visibility
340° at 14 knots
 Gusting to 20 knots
Greater than 6 miles
Clouds
  • Scattered at 2,000' AGL
  • Broken at 3,500' AGL
From Jan-20 @ 15:00 - Jan-20 @ 18:00
Wind Visibility
340° at 11 knots Greater than 6 miles
Clouds
  • Broken at 12,000' AGL